sensor_id;sensor_type;location;lat;lon;timestamp;pressure;altitude;pressure_sealevel;temperature
82411;BMP180;72054;55.772;49.096;2023-08-20T00:00:07;101090.00;;;18.40
82411;BMP180;72054;55.772;49.096;2023-08-20T00:01:11;101084.00;;;18.30
82411;BMP180;72054;55.772;49.096;2023-08-20T00:02:12;101165.00;;;18.30
82411;BMP180;72054;55.772;49.096;2023-08-20T00:03:13;101081.00;;;18.30
82411;BMP180;72054;55.772;49.096;2023-08-20T00:04:14;101091.00;;;18.30
82411;BMP180;72054;55.772;49.096;2023-08-20T00:05:15;100970.00;;;18.30
82411;BMP180;72054;55.772;49.096;2023-08-20T00:06:16;101102.00;;;18.30
82411;BMP180;72054;55.772;49.096;2023-08-20T00:07:17;101063.00;;;18.30
82411;BMP180;72054;55.772;49.096;2023-08-20T00:08:18;101092.00;;;18.40
82411;BMP180;72054;55.772;49.096;2023-08-20T00:09:19;101075.00;;;18.40
82411;BMP180;72054;55.772;49.096;2023-08-20T00:10:19;101018.00;;;18.30
82411;BMP180;72054;55.772;49.096;2023-08-20T00:11:20;101028.00;;;18.30
82411;BMP180;72054;55.772;49.096;2023-08-20T00:12:20;101159.00;;;18.30
82411;BMP180;72054;55.772;49.096;2023-08-20T00:13:22;101056.00;;;18.20
82411;BMP180;72054;55.772;49.096;2023-08-20T00:14:55;101136.00;;;18.30
82411;BMP180;72054;55.772;49.096;2023-08-20T00:15:58;101021.00;;;18.30
82411;BMP180;72054;55.772;49.096;2023-08-20T00:16:59;101048.00;;;18.20
82411;BMP180;72054;55.772;49.096;2023-08-20T00:18:00;101070.00;;;18.20
82411;BMP180;72054;55.772;49.096;2023-08-20T00:19:01;101111.00;;;18.20
82411;BMP180;72054;55.772;49.096;2023-08-20T00:20:05;101131.00;;;18.20
82411;BMP180;72054;55.772;49.096;2023-08-20T00:21:15;101040.00;;;18.20
82411;BMP180;72054;55.772;49.096;2023-08-20T00:22:16;101140.00;;;18.20
82411;BMP180;72054;55.772;49.096;2023-08-20T00:23:18;101136.00;;;18.20
82411;BMP180;72054;55.772;49.096;2023-08-20T00:24:19;101038.00;;;18.20
82411;BMP180;72054;55.772;49.096;2023-08-20T00:25:19;101136.00;;;18.10
82411;BMP180;72054;55.772;49.096;2023-08-20T00:26:20;101053.00;;;18.10
82411;BMP180;72054;55.772;49.096;2023-08-20T00:27:21;101139.00;;;18.10
82411;BMP180;72054;55.772;49.096;2023-08-20T00:28:22;101137.00;;;18.10
82411;BMP180;72054;55.772;49.096;2023-08-20T00:29:22;101085.00;;;18.10
82411;BMP180;72054;55.772;49.096;2023-08-20T00:30:23;101086.00;;;18.10
82411;BMP180;72054;55.772;49.096;2023-08-20T00:31:23;101148.00;;;18.10
82411;BMP180;72054;55.772;49.096;2023-08-20T00:32:24;101137.00;;;18.10
82411;BMP180;72054;55.772;49.096;2023-08-20T00:33:25;101033.00;;;18.10
82411;BMP180;72054;55.772;49.096;2023-08-20T00:34:26;101082.00;;;18.10
82411;BMP180;72054;55.772;49.096;2023-08-20T00:35:26;101059.00;;;18.10
82411;BMP180;72054;55.772;49.096;2023-08-20T00:36:27;101041.00;;;18.10
82411;BMP180;72054;55.772;49.096;2023-08-20T00:37:27;101130.00;;;18.00
82411;BMP180;72054;55.772;49.096;2023-08-20T00:38:28;101028.00;;;18.10
82411;BMP180;72054;55.772;49.096;2023-08-20T00:39:30;101143.00;;;18.10
82411;BMP180;72054;55.772;49.096;2023-08-20T00:40:31;101075.00;;;18.00
82411;BMP180;72054;55.772;49.096;2023-08-20T00:41:32;101125.00;;;18.00
82411;BMP180;72054;55.772;49.096;2023-08-20T00:42:32;101134.00;;;18.00
82411;BMP180;72054;55.772;49.096;2023-08-20T00:43:33;101017.00;;;18.00
82411;BMP180;72054;55.772;49.096;2023-08-20T00:44:34;101128.00;;;18.00
82411;BMP180;72054;55.772;49.096;2023-08-20T00:45:35;101056.00;;;18.00
82411;BMP180;72054;55.772;49.096;2023-08-20T00:46:35;101083.00;;;18.00
82411;BMP180;72054;55.772;49.096;2023-08-20T00:47:37;101048.00;;;17.90
82411;BMP180;72054;55.772;49.096;2023-08-20T00:48:37;101115.00;;;17.90
82411;BMP180;72054;55.772;49.096;2023-08-20T00:49:39;101023.00;;;17.90
82411;BMP180;72054;55.772;49.096;2023-08-20T00:50:40;101147.00;;;17.90
82411;BMP180;72054;55.772;49.096;2023-08-20T00:51:41;101013.00;;;17.90
82411;BMP180;72054;55.772;49.096;2023-08-20T00:52:42;101121.00;;;17.90
82411;BMP180;72054;55.772;49.096;2023-08-20T00:53:44;101133.00;;;17.90
82411;BMP180;72054;55.772;49.096;2023-08-20T00:54:45;101075.00;;;17.90
82411;BMP180;72054;55.772;49.096;2023-08-20T00:55:48;101094.00;;;17.80
82411;BMP180;72054;55.772;49.096;2023-08-20T00:56:49;101086.00;;;17.80
82411;BMP180;72054;55.772;49.096;2023-08-20T00:57:50;101030.00;;;17.80
82411;BMP180;72054;55.772;49.096;2023-08-20T00:58:53;101089.00;;;17.80
82411;BMP180;72054;55.772;49.096;2023-08-20T00:59:54;101132.00;;;17.80
82411;BMP180;72054;55.772;49.096;2023-08-20T01:00:56;100954.00;;;17.80
82411;BMP180;72054;55.772;49.096;2023-08-20T01:01:56;101050.00;;;17.80
82411;BMP180;72054;55.772;49.096;2023-08-20T01:02:57;101116.00;;;17.80
82411;BMP180;72054;55.772;49.096;2023-08-20T01:03:58;101115.00;;;17.70
82411;BMP180;72054;55.772;49.096;2023-08-20T01:04:58;101101.00;;;17.70
82411;BMP180;72054;55.772;49.096;2023-08-20T01:07:59;101127.00;;;17.70
82411;BMP180;72054;55.772;49.096;2023-08-20T01:11:06;101114.00;;;17.70
82411;BMP180;72054;55.772;49.096;2023-08-20T01:12:10;101120.00;;;17.20
82411;BMP180;72054;55.772;49.096;2023-08-20T01:13:10;101062.00;;;17.60
82411;BMP180;72054;55.772;49.096;2023-08-20T01:14:17;101073.00;;;17.60
82411;BMP180;72054;55.772;49.096;2023-08-20T01:15:18;101060.00;;;17.60
82411;BMP180;72054;55.772;49.096;2023-08-20T01:16:18;101139.00;;;17.60
82411;BMP180;72054;55.772;49.096;2023-08-20T01:17:19;101131.00;;;17.60
82411;BMP180;72054;55.772;49.096;2023-08-20T01:18:20;101030.00;;;17.60
82411;BMP180;72054;55.772;49.096;2023-08-20T01:19:22;101137.00;;;17.50
82411;BMP180;72054;55.772;49.096;2023-08-20T01:20:26;101035.00;;;17.50
82411;BMP180;72054;55.772;49.096;2023-08-20T01:21:39;101017.00;;;17.60
82411;BMP180;72054;55.772;49.096;2023-08-20T01:24:26;101131.00;;;17.60
82411;BMP180;72054;55.772;49.096;2023-08-20T01:27:08;101119.00;;;17.60
82411;BMP180;72054;55.772;49.096;2023-08-20T01:28:28;101142.00;;;17.60
82411;BMP180;72054;55.772;49.096;2023-08-20T01:29:29;101139.00;;;17.50
82411;BMP180;72054;55.772;49.096;2023-08-20T01:30:30;101132.00;;;17.40
82411;BMP180;72054;55.772;49.096;2023-08-20T01:31:32;101137.00;;;17.10
82411;BMP180;72054;55.772;49.096;2023-08-20T01:32:34;101066.00;;;17.40
82411;BMP180;72054;55.772;49.096;2023-08-20T01:33:36;100994.00;;;17.40
82411;BMP180;72054;55.772;49.096;2023-08-20T01:34:36;101132.00;;;17.50
82411;BMP180;72054;55.772;49.096;2023-08-20T01:35:37;101069.00;;;17.50
82411;BMP180;72054;55.772;49.096;2023-08-20T01:36:38;101126.00;;;17.50
82411;BMP180;72054;55.772;49.096;2023-08-20T01:37:38;100928.00;;;17.40
82411;BMP180;72054;55.772;49.096;2023-08-20T01:38:39;101074.00;;;17.40
82411;BMP180;72054;55.772;49.096;2023-08-20T01:39:40;101084.00;;;17.40
82411;BMP180;72054;55.772;49.096;2023-08-20T01:40:40;101079.00;;;17.40
82411;BMP180;72054;55.772;49.096;2023-08-20T01:41:41;101083.00;;;17.40
82411;BMP180;72054;55.772;49.096;2023-08-20T01:42:41;101004.00;;;17.40
82411;BMP180;72054;55.772;49.096;2023-08-20T01:43:42;101105.00;;;17.40
82411;BMP180;72054;55.772;49.096;2023-08-20T01:44:43;101112.00;;;17.50
82411;BMP180;72054;55.772;49.096;2023-08-20T01:45:43;101035.00;;;17.50
82411;BMP180;72054;55.772;49.096;2023-08-20T01:46:44;101090.00;;;17.50
82411;BMP180;72054;55.772;49.096;2023-08-20T01:47:44;100955.00;;;17.60
82411;BMP180;72054;55.772;49.096;2023-08-20T01:48:45;101072.00;;;17.60
82411;BMP180;72054;55.772;49.096;2023-08-20T01:49:45;101064.00;;;17.60
82411;BMP180;72054;55.772;49.096;2023-08-20T01:50:46;101113.00;;;17.60
82411;BMP180;72054;55.772;49.096;2023-08-20T01:51:46;101041.00;;;17.70
82411;BMP180;72054;55.772;49.096;2023-08-20T01:52:47;101126.00;;;17.70
82411;BMP180;72054;55.772;49.096;2023-08-20T01:53:48;101148.00;;;17.70
82411;BMP180;72054;55.772;49.096;2023-08-20T01:54:48;101132.00;;;17.80
82411;BMP180;72054;55.772;49.096;2023-08-20T01:55:49;101041.00;;;17.90
82411;BMP180;72054;55.772;49.096;2023-08-20T01:56:50;101105.00;;;18.00
82411;BMP180;72054;55.772;49.096;2023-08-20T01:57:50;101114.00;;;18.10
82411;BMP180;72054;55.772;49.096;2023-08-20T01:58:51;101115.00;;;18.30
82411;BMP180;72054;55.772;49.096;2023-08-20T01:59:51;100959.00;;;18.50
82411;BMP180;72054;55.772;49.096;2023-08-20T02:00:52;101070.00;;;18.70
82411;BMP180;72054;55.772;49.096;2023-08-20T02:01:53;100938.00;;;19.00
82411;BMP180;72054;55.772;49.096;2023-08-20T02:02:53;101115.00;;;19.20
82411;BMP180;72054;55.772;49.096;2023-08-20T02:03:54;101116.00;;;19.50
82411;BMP180;72054;55.772;49.096;2023-08-20T02:04:54;101055.00;;;19.70
82411;BMP180;72054;55.772;49.096;2023-08-20T02:05:55;101121.00;;;20.00
82411;BMP180;72054;55.772;49.096;2023-08-20T02:06:55;101059.00;;;20.20
82411;BMP180;72054;55.772;49.096;2023-08-20T02:07:56;101078.00;;;20.40
82411;BMP180;72054;55.772;49.096;2023-08-20T02:08:56;101075.00;;;20.60
82411;BMP180;72054;55.772;49.096;2023-08-20T02:09:57;101049.00;;;20.70
82411;BMP180;72054;55.772;49.096;2023-08-20T02:11:04;101027.00;;;21.00
82411;BMP180;72054;55.772;49.096;2023-08-20T02:12:05;101074.00;;;21.20
82411;BMP180;72054;55.772;49.096;2023-08-20T02:13:06;100976.00;;;21.40
82411;BMP180;72054;55.772;49.096;2023-08-20T02:14:07;101103.00;;;21.60
82411;BMP180;72054;55.772;49.096;2023-08-20T02:15:08;101056.00;;;21.90
82411;BMP180;72054;55.772;49.096;2023-08-20T02:16:09;101005.00;;;22.10
82411;BMP180;72054;55.772;49.096;2023-08-20T02:17:10;101052.00;;;22.30
82411;BMP180;72054;55.772;49.096;2023-08-20T02:18:12;101104.00;;;22.40
82411;BMP180;72054;55.772;49.096;2023-08-20T02:19:13;101044.00;;;22.60
82411;BMP180;72054;55.772;49.096;2023-08-20T02:20:14;101062.00;;;22.80
82411;BMP180;72054;55.772;49.096;2023-08-20T02:21:14;100998.00;;;23.00
82411;BMP180;72054;55.772;49.096;2023-08-20T02:22:15;101062.00;;;23.20
82411;BMP180;72054;55.772;49.096;2023-08-20T02:23:16;101031.00;;;23.50
82411;BMP180;72054;55.772;49.096;2023-08-20T02:24:16;100980.00;;;23.70
82411;BMP180;72054;55.772;49.096;2023-08-20T02:25:17;101033.00;;;23.90
82411;BMP180;72054;55.772;49.096;2023-08-20T02:26:17;101051.00;;;24.20
82411;BMP180;72054;55.772;49.096;2023-08-20T02:27:18;101022.00;;;24.50
82411;BMP180;72054;55.772;49.096;2023-08-20T02:28:18;101041.00;;;24.80
82411;BMP180;72054;55.772;49.096;2023-08-20T02:29:19;101078.00;;;25.00
82411;BMP180;72054;55.772;49.096;2023-08-20T02:30:20;101061.00;;;25.30
82411;BMP180;72054;55.772;49.096;2023-08-20T02:31:20;100934.00;;;25.50
82411;BMP180;72054;55.772;49.096;2023-08-20T02:32:21;101122.00;;;25.80
82411;BMP180;72054;55.772;49.096;2023-08-20T02:33:21;101093.00;;;26.10
82411;BMP180;72054;55.772;49.096;2023-08-20T02:34:22;101128.00;;;26.30
82411;BMP180;72054;55.772;49.096;2023-08-20T02:35:23;101054.00;;;26.60
82411;BMP180;72054;55.772;49.096;2023-08-20T02:36:23;101021.00;;;26.90
82411;BMP180;72054;55.772;49.096;2023-08-20T02:37:24;101122.00;;;27.20
82411;BMP180;72054;55.772;49.096;2023-08-20T02:38:24;101106.00;;;27.40
82411;BMP180;72054;55.772;49.096;2023-08-20T02:39:25;101048.00;;;27.70
82411;BMP180;72054;55.772;49.096;2023-08-20T02:40:26;101041.00;;;28.00
82411;BMP180;72054;55.772;49.096;2023-08-20T02:41:26;101026.00;;;28.10
82411;BMP180;72054;55.772;49.096;2023-08-20T02:42:27;101126.00;;;28.30
82411;BMP180;72054;55.772;49.096;2023-08-20T02:43:27;101140.00;;;28.50
82411;BMP180;72054;55.772;49.096;2023-08-20T02:44:28;101136.00;;;28.60
82411;BMP180;72054;55.772;49.096;2023-08-20T02:45:29;101123.00;;;28.80
82411;BMP180;72054;55.772;49.096;2023-08-20T02:46:29;101151.00;;;29.00
82411;BMP180;72054;55.772;49.096;2023-08-20T02:47:30;101141.00;;;29.10
82411;BMP180;72054;55.772;49.096;2023-08-20T02:48:31;101042.00;;;29.20
82411;BMP180;72054;55.772;49.096;2023-08-20T02:49:31;101141.00;;;29.40
82411;BMP180;72054;55.772;49.096;2023-08-20T02:50:32;101115.00;;;29.60
82411;BMP180;72054;55.772;49.096;2023-08-20T02:51:33;101139.00;;;29.80
82411;BMP180;72054;55.772;49.096;2023-08-20T02:52:33;101130.00;;;30.00
82411;BMP180;72054;55.772;49.096;2023-08-20T02:53:34;101162.00;;;30.20
82411;BMP180;72054;55.772;49.096;2023-08-20T02:54:34;101135.00;;;30.50
82411;BMP180;72054;55.772;49.096;2023-08-20T02:55:35;101131.00;;;30.70
82411;BMP180;72054;55.772;49.096;2023-08-20T02:56:35;101137.00;;;30.90
82411;BMP180;72054;55.772;49.096;2023-08-20T02:57:36;101134.00;;;31.10
82411;BMP180;72054;55.772;49.096;2023-08-20T02:58:37;101136.00;;;31.40
82411;BMP180;72054;55.772;49.096;2023-08-20T02:59:37;101102.00;;;31.50
82411;BMP180;72054;55.772;49.096;2023-08-20T03:00:38;101133.00;;;31.70
82411;BMP180;72054;55.772;49.096;2023-08-20T03:01:38;101136.00;;;31.90
82411;BMP180;72054;55.772;49.096;2023-08-20T03:02:39;101132.00;;;32.10
82411;BMP180;72054;55.772;49.096;2023-08-20T03:03:42;101110.00;;;32.30
82411;BMP180;72054;55.772;49.096;2023-08-20T03:04:42;101130.00;;;32.40
82411;BMP180;72054;55.772;49.096;2023-08-20T03:05:43;101101.00;;;32.60
82411;BMP180;72054;55.772;49.096;2023-08-20T03:06:43;101120.00;;;32.70
82411;BMP180;72054;55.772;49.096;2023-08-20T03:07:44;101103.00;;;32.90
82411;BMP180;72054;55.772;49.096;2023-08-20T03:08:45;101104.00;;;33.00
82411;BMP180;72054;55.772;49.096;2023-08-20T03:09:46;101121.00;;;33.20
82411;BMP180;72054;55.772;49.096;2023-08-20T03:10:46;101133.00;;;33.40
82411;BMP180;72054;55.772;49.096;2023-08-20T03:11:47;101128.00;;;33.70
82411;BMP180;72054;55.772;49.096;2023-08-20T03:12:47;101078.00;;;33.90
82411;BMP180;72054;55.772;49.096;2023-08-20T03:13:48;101128.00;;;34.10
82411;BMP180;72054;55.772;49.096;2023-08-20T03:14:49;101110.00;;;34.30
82411;BMP180;72054;55.772;49.096;2023-08-20T03:15:50;101116.00;;;34.60
82411;BMP180;72054;55.772;49.096;2023-08-20T03:16:50;101105.00;;;34.80
82411;BMP180;72054;55.772;49.096;2023-08-20T03:17:51;101121.00;;;35.00
82411;BMP180;72054;55.772;49.096;2023-08-20T03:18:51;101121.00;;;35.20
82411;BMP180;72054;55.772;49.096;2023-08-20T03:19:57;101115.00;;;35.50
82411;BMP180;72054;55.772;49.096;2023-08-20T03:20:58;101122.00;;;35.70
82411;BMP180;72054;55.772;49.096;2023-08-20T03:21:58;101109.00;;;35.90
82411;BMP180;72054;55.772;49.096;2023-08-20T03:22:59;101035.00;;;36.20
82411;BMP180;72054;55.772;49.096;2023-08-20T03:23:59;101089.00;;;36.40
82411;BMP180;72054;55.772;49.096;2023-08-20T03:25:00;101118.00;;;36.60
82411;BMP180;72054;55.772;49.096;2023-08-20T03:26:00;101077.00;;;36.70
82411;BMP180;72054;55.772;49.096;2023-08-20T03:27:01;101105.00;;;36.90
82411;BMP180;72054;55.772;49.096;2023-08-20T03:28:02;101078.00;;;37.10
82411;BMP180;72054;55.772;49.096;2023-08-20T03:29:02;101120.00;;;37.70
82411;BMP180;72054;55.772;49.096;2023-08-20T03:30:04;101122.00;;;37.40
82411;BMP180;72054;55.772;49.096;2023-08-20T03:31:04;101133.00;;;37.40
82411;BMP180;72054;55.772;49.096;2023-08-20T03:32:05;101084.00;;;37.40
82411;BMP180;72054;55.772;49.096;2023-08-20T03:33:06;101140.00;;;37.50
82411;BMP180;72054;55.772;49.096;2023-08-20T03:34:06;101107.00;;;37.70
82411;BMP180;72054;55.772;49.096;2023-08-20T03:35:09;101083.00;;;37.90
82411;BMP180;72054;55.772;49.096;2023-08-20T03:36:09;101129.00;;;38.10
82411;BMP180;72054;55.772;49.096;2023-08-20T03:37:10;101102.00;;;38.30
82411;BMP180;72054;55.772;49.096;2023-08-20T03:38:10;101128.00;;;39.00
82411;BMP180;72054;55.772;49.096;2023-08-20T03:39:11;101138.00;;;38.90
82411;BMP180;72054;55.772;49.096;2023-08-20T03:40:12;101117.00;;;39.10
82411;BMP180;72054;55.772;49.096;2023-08-20T03:41:12;101072.00;;;39.30
82411;BMP180;72054;55.772;49.096;2023-08-20T03:42:13;101132.00;;;39.30
82411;BMP180;72054;55.772;49.096;2023-08-20T03:43:14;101127.00;;;39.40
82411;BMP180;72054;55.772;49.096;2023-08-20T03:44:14;101105.00;;;39.10
82411;BMP180;72054;55.772;49.096;2023-08-20T03:45:15;101142.00;;;38.60
82411;BMP180;72054;55.772;49.096;2023-08-20T03:46:15;101138.00;;;38.60
82411;BMP180;72054;55.772;49.096;2023-08-20T03:47:16;101144.00;;;37.70
82411;BMP180;72054;55.772;49.096;2023-08-20T03:48:20;101112.00;;;36.90
82411;BMP180;72054;55.772;49.096;2023-08-20T03:49:21;101033.00;;;36.20
82411;BMP180;72054;55.772;49.096;2023-08-20T03:50:22;101137.00;;;36.00
82411;BMP180;72054;55.772;49.096;2023-08-20T03:51:22;101127.00;;;35.20
82411;BMP180;72054;55.772;49.096;2023-08-20T03:52:23;101125.00;;;34.60
82411;BMP180;72054;55.772;49.096;2023-08-20T03:53:24;100959.00;;;34.20
82411;BMP180;72054;55.772;49.096;2023-08-20T03:54:24;101087.00;;;33.90
82411;BMP180;72054;55.772;49.096;2023-08-20T03:55:25;101139.00;;;33.80
82411;BMP180;72054;55.772;49.096;2023-08-20T03:56:26;101101.00;;;33.90
82411;BMP180;72054;55.772;49.096;2023-08-20T03:57:26;101121.00;;;34.10
82411;BMP180;72054;55.772;49.096;2023-08-20T03:58:27;101043.00;;;34.40
82411;BMP180;72054;55.772;49.096;2023-08-20T03:59:27;101040.00;;;34.70
82411;BMP180;72054;55.772;49.096;2023-08-20T04:00:28;101125.00;;;34.90
82411;BMP180;72054;55.772;49.096;2023-08-20T04:01:28;101129.00;;;34.90
82411;BMP180;72054;55.772;49.096;2023-08-20T04:02:29;101114.00;;;34.60
82411;BMP180;72054;55.772;49.096;2023-08-20T04:03:29;101124.00;;;34.30
82411;BMP180;72054;55.772;49.096;2023-08-20T04:04:30;101073.00;;;33.90
82411;BMP180;72054;55.772;49.096;2023-08-20T04:05:38;101128.00;;;33.50
82411;BMP180;72054;55.772;49.096;2023-08-20T04:06:39;101130.00;;;33.00
82411;BMP180;72054;55.772;49.096;2023-08-20T04:07:39;101103.00;;;32.60
82411;BMP180;72054;55.772;49.096;2023-08-20T04:08:40;101055.00;;;32.10
82411;BMP180;72054;55.772;49.096;2023-08-20T04:09:41;101121.00;;;31.60
82411;BMP180;72054;55.772;49.096;2023-08-20T04:10:45;101028.00;;;31.10
82411;BMP180;72054;55.772;49.096;2023-08-20T04:11:47;101090.00;;;30.60
82411;BMP180;72054;55.772;49.096;2023-08-20T04:12:47;101101.00;;;30.20
82411;BMP180;72054;55.772;49.096;2023-08-20T04:13:48;100968.00;;;29.70
82411;BMP180;72054;55.772;49.096;2023-08-20T04:14:49;101102.00;;;29.40
82411;BMP180;72054;55.772;49.096;2023-08-20T04:15:49;101118.00;;;29.00
82411;BMP180;72054;55.772;49.096;2023-08-20T04:16:50;101095.00;;;28.70
82411;BMP180;72054;55.772;49.096;2023-08-20T04:17:50;101066.00;;;28.50
82411;BMP180;72054;55.772;49.096;2023-08-20T04:18:51;101012.00;;;28.40
82411;BMP180;72054;55.772;49.096;2023-08-20T04:19:52;101071.00;;;28.70
82411;BMP180;72054;55.772;49.096;2023-08-20T04:20:53;101050.00;;;29.10
82411;BMP180;72054;55.772;49.096;2023-08-20T04:21:53;101115.00;;;29.80
82411;BMP180;72054;55.772;49.096;2023-08-20T04:22:54;101056.00;;;30.50
82411;BMP180;72054;55.772;49.096;2023-08-20T04:23:54;101114.00;;;31.30
82411;BMP180;72054;55.772;49.096;2023-08-20T04:24:55;100986.00;;;32.10
82411;BMP180;72054;55.772;49.096;2023-08-20T04:25:56;101072.00;;;32.90
82411;BMP180;72054;55.772;49.096;2023-08-20T04:26:56;101096.00;;;33.70
82411;BMP180;72054;55.772;49.096;2023-08-20T04:27:57;101064.00;;;34.60
82411;BMP180;72054;55.772;49.096;2023-08-20T04:28:58;101082.00;;;35.40
82411;BMP180;72054;55.772;49.096;2023-08-20T04:29:58;101052.00;;;36.10
82411;BMP180;72054;55.772;49.096;2023-08-20T04:30:59;101127.00;;;36.80
82411;BMP180;72054;55.772;49.096;2023-08-20T04:32:00;101116.00;;;37.40
82411;BMP180;72054;55.772;49.096;2023-08-20T04:33:02;101125.00;;;37.90
82411;BMP180;72054;55.772;49.096;2023-08-20T04:34:03;101091.00;;;38.50
82411;BMP180;72054;55.772;49.096;2023-08-20T04:35:04;101022.00;;;39.00
82411;BMP180;72054;55.772;49.096;2023-08-20T04:36:04;101087.00;;;39.50
82411;BMP180;72054;55.772;49.096;2023-08-20T04:37:05;101065.00;;;39.80
82411;BMP180;72054;55.772;49.096;2023-08-20T04:38:06;101072.00;;;40.20
82411;BMP180;72054;55.772;49.096;2023-08-20T04:39:08;101019.00;;;40.70
82411;BMP180;72054;55.772;49.096;2023-08-20T04:40:08;101102.00;;;41.60
82411;BMP180;72054;55.772;49.096;2023-08-20T04:41:09;101068.00;;;41.80
82411;BMP180;72054;55.772;49.096;2023-08-20T04:42:10;101101.00;;;42.30
82411;BMP180;72054;55.772;49.096;2023-08-20T04:43:10;101092.00;;;43.20
82411;BMP180;72054;55.772;49.096;2023-08-20T04:44:11;101027.00;;;43.30
82411;BMP180;72054;55.772;49.096;2023-08-20T04:45:11;101092.00;;;44.10
82411;BMP180;72054;55.772;49.096;2023-08-20T04:46:12;101037.00;;;44.20
82411;BMP180;72054;55.772;49.096;2023-08-20T04:47:12;101091.00;;;44.80
82411;BMP180;72054;55.772;49.096;2023-08-20T04:48:13;101095.00;;;44.50
82411;BMP180;72054;55.772;49.096;2023-08-20T04:49:13;101093.00;;;45.40
82411;BMP180;72054;55.772;49.096;2023-08-20T04:50:14;101092.00;;;45.40
82411;BMP180;72054;55.772;49.096;2023-08-20T04:51:14;101099.00;;;46.20
82411;BMP180;72054;55.772;49.096;2023-08-20T04:52:15;101103.00;;;46.30
82411;BMP180;72054;55.772;49.096;2023-08-20T04:53:15;101106.00;;;47.00
82411;BMP180;72054;55.772;49.096;2023-08-20T04:54:16;101038.00;;;47.20
82411;BMP180;72054;55.772;49.096;2023-08-20T04:55:16;101104.00;;;47.70
82411;BMP180;72054;55.772;49.096;2023-08-20T04:56:20;101050.00;;;47.60
82411;BMP180;72054;55.772;49.096;2023-08-20T04:57:20;101079.00;;;47.40
82411;BMP180;72054;55.772;49.096;2023-08-20T04:58:21;101107.00;;;47.80
82411;BMP180;72054;55.772;49.096;2023-08-20T04:59:21;101100.00;;;47.60
82411;BMP180;72054;55.772;49.096;2023-08-20T05:00:22;101109.00;;;47.60
82411;BMP180;72054;55.772;49.096;2023-08-20T05:01:23;101110.00;;;48.10
82411;BMP180;72054;55.772;49.096;2023-08-20T05:02:23;101070.00;;;48.00
82411;BMP180;72054;55.772;49.096;2023-08-20T05:03:25;101104.00;;;48.50
82411;BMP180;72054;55.772;49.096;2023-08-20T05:04:25;101082.00;;;48.50
82411;BMP180;72054;55.772;49.096;2023-08-20T05:05:26;101105.00;;;49.00
82411;BMP180;72054;55.772;49.096;2023-08-20T05:06:26;101091.00;;;48.80
82411;BMP180;72054;55.772;49.096;2023-08-20T05:07:27;101100.00;;;49.30
82411;BMP180;72054;55.772;49.096;2023-08-20T05:08:27;101119.00;;;49.10
82411;BMP180;72054;55.772;49.096;2023-08-20T05:09:28;101107.00;;;49.60
82411;BMP180;72054;55.772;49.096;2023-08-20T05:10:31;101099.00;;;49.30
82411;BMP180;72054;55.772;49.096;2023-08-20T05:11:31;101108.00;;;49.30
82411;BMP180;72054;55.772;49.096;2023-08-20T05:12:33;101032.00;;;49.30
82411;BMP180;72054;55.772;49.096;2023-08-20T05:13:33;101105.00;;;49.80
82411;BMP180;72054;55.772;49.096;2023-08-20T05:14:34;101113.00;;;49.50
82411;BMP180;72054;55.772;49.096;2023-08-20T05:15:34;101109.00;;;50.00
82411;BMP180;72054;55.772;49.096;2023-08-20T05:16:35;101109.00;;;49.70
82411;BMP180;72054;55.772;49.096;2023-08-20T05:17:36;101103.00;;;50.10
82411;BMP180;72054;55.772;49.096;2023-08-20T05:18:36;101111.00;;;49.80
82411;BMP180;72054;55.772;49.096;2023-08-20T05:19:37;101092.00;;;50.10
82411;BMP180;72054;55.772;49.096;2023-08-20T05:20:39;101018.00;;;49.80
82411;BMP180;72054;55.772;49.096;2023-08-20T05:21:40;101067.00;;;49.70
82411;BMP180;72054;55.772;49.096;2023-08-20T05:22:41;101104.00;;;50.10
82411;BMP180;72054;55.772;49.096;2023-08-20T05:23:41;101078.00;;;49.90
82411;BMP180;72054;55.772;49.096;2023-08-20T05:24:42;101094.00;;;50.30
82411;BMP180;72054;55.772;49.096;2023-08-20T05:25:42;101076.00;;;50.10
82411;BMP180;72054;55.772;49.096;2023-08-20T05:26:43;101094.00;;;50.40
82411;BMP180;72054;55.772;49.096;2023-08-20T05:27:43;101091.00;;;50.20
82411;BMP180;72054;55.772;49.096;2023-08-20T05:28:44;101092.00;;;50.60
82411;BMP180;72054;55.772;49.096;2023-08-20T05:29:44;101086.00;;;50.50
82411;BMP180;72054;55.772;49.096;2023-08-20T05:30:52;101089.00;;;50.90
82411;BMP180;72054;55.772;49.096;2023-08-20T05:31:52;101039.00;;;50.60
82411;BMP180;72054;55.772;49.096;2023-08-20T05:32:53;101092.00;;;51.10
82411;BMP180;72054;55.772;49.096;2023-08-20T05:33:53;101076.00;;;50.90
82411;BMP180;72054;55.772;49.096;2023-08-20T05:34:53;101091.00;;;51.30
82411;BMP180;72054;55.772;49.096;2023-08-20T05:35:54;101106.00;;;51.10
82411;BMP180;72054;55.772;49.096;2023-08-20T05:36:54;101086.00;;;51.40
82411;BMP180;72054;55.772;49.096;2023-08-20T05:37:55;101082.00;;;51.10
82411;BMP180;72054;55.772;49.096;2023-08-20T05:38:56;101104.00;;;51.10
82411;BMP180;72054;55.772;49.096;2023-08-20T05:39:56;101085.00;;;51.10
82411;BMP180;72054;55.772;49.096;2023-08-20T05:40:57;101083.00;;;51.50
82411;BMP180;72054;55.772;49.096;2023-08-20T05:41:57;101088.00;;;51.40
82411;BMP180;72054;55.772;49.096;2023-08-20T05:42:57;101083.00;;;51.80
82411;BMP180;72054;55.772;49.096;2023-08-20T05:43:58;101093.00;;;51.50
82411;BMP180;72054;55.772;49.096;2023-08-20T05:44:58;101085.00;;;51.80
82411;BMP180;72054;55.772;49.096;2023-08-20T05:45:59;101095.00;;;51.50
82411;BMP180;72054;55.772;49.096;2023-08-20T05:47:00;101082.00;;;51.60
82411;BMP180;72054;55.772;49.096;2023-08-20T05:48:01;101050.00;;;51.60
82411;BMP180;72054;55.772;49.096;2023-08-20T05:49:02;101082.00;;;51.70